Time;durP1;ratioP1;P1;durP2;ratioP2;P2;SDS_P1;SDS_P2;PMS_P1;PMS_P2;Temp;Humidity;BMP_temperature;BMP_pressure;BME280_temperature;BME280_humidity;BME280_pressure;Samples;Min_cycle;Max_cycle;Signal;HPM_P1;HPM_P2
2022/07/01 00:01:09;;;;;;;7.50;5.03;;;;;;;21.29;72.72;100411.22;6000785;28;20506;-67
2022/07/01 00:04:04;;;;;;;7.70;4.78;;;;;;;21.25;73.04;100424.31;5995197;28;20042;-66
2022/07/01 00:06:59;;;;;;;7.82;4.20;;;;;;;21.13;73.49;100430.69;5994784;28;20109;-67
2022/07/01 00:09:55;;;;;;;9.53;4.67;;;;;;;21.02;74.55;100423.28;6000409;28;20086;-66
2022/07/01 00:12:50;;;;;;;9.60;4.53;;;;;;;20.88;75.70;100436.03;5993007;28;20108;-67
2022/07/01 00:15:45;;;;;;;6.53;4.00;;;;;;;20.64;76.52;100429.59;6000879;28;20390;-67
2022/07/01 00:18:41;;;;;;;8.07;3.87;;;;;;;20.66;76.94;100437.44;5993030;28;20110;-67
2022/07/01 00:21:36;;;;;;;7.32;4.32;;;;;;;20.47;77.87;100446.50;5999195;28;20031;-67
2022/07/01 00:24:31;;;;;;;8.05;4.20;;;;;;;20.41;78.27;100448.19;6001892;28;20043;-66
2022/07/01 00:27:27;;;;;;;5.60;3.63;;;;;;;20.26;78.86;100434.19;5992369;28;20513;-67
2022/07/01 00:30:23;;;;;;;6.23;4.03;;;;;;;20.17;79.57;100440.81;6002125;28;20034;-67
2022/07/01 00:33:18;;;;;;;8.20;4.38;;;;;;;20.02;80.16;100422.28;5992674;28;20574;-67
2022/07/01 00:36:14;;;;;;;6.32;3.85;;;;;;;20.04;80.62;100441.72;6002130;28;20039;-67
2022/07/01 00:39:09;;;;;;;9.07;4.60;;;;;;;19.91;81.17;100443.66;5997651;28;20491;-67
2022/07/01 00:42:04;;;;;;;6.60;3.80;;;;;;;19.94;81.32;100449.44;6001890;28;20039;-66
2022/07/01 00:45:00;;;;;;;6.20;3.67;;;;;;;19.97;81.41;100451.72;6002985;28;20046;-66
2022/07/01 00:47:55;;;;;;;9.33;4.87;;;;;;;19.98;81.81;100447.13;6002042;28;20038;-67
2022/07/01 00:50:51;;;;;;;8.13;4.57;;;;;;;19.90;82.35;100455.44;6001269;28;20039;-67
2022/07/01 00:53:46;;;;;;;9.83;4.53;;;;;;;19.98;82.38;100458.72;5994633;28;20043;-67
2022/07/01 00:56:42;;;;;;;7.03;4.47;;;;;;;19.92;82.50;100453.38;5999087;28;20356;-67
2022/07/01 00:59:38;;;;;;;8.00;4.73;;;;;;;19.99;82.57;100473.84;6001867;28;20445;-67
2022/07/01 01:02:34;;;;;;;8.23;4.65;;;;;;;20.02;81.90;100480.69;6000847;28;20464;-66
2022/07/01 01:05:29;;;;;;;8.00;4.60;;;;;;;19.82;82.47;100475.34;6002477;28;20030;-67
2022/07/01 01:08:27;;;;;;;7.97;3.97;;;;;;;19.82;82.11;100491.50;6000636;28;20038;-66
2022/07/01 01:11:22;;;;;;;6.88;4.20;;;;;;;19.76;81.80;100489.66;6000952;28;20153;-67
2022/07/01 01:14:18;;;;;;;6.68;4.00;;;;;;;19.71;81.82;100477.88;5996943;28;20078;-66
2022/07/01 01:17:14;;;;;;;7.73;3.97;;;;;;;19.56;82.40;100459.28;5998325;28;20042;-67
2022/07/01 01:20:15;;;;;;;9.25;4.32;;;;;;;19.59;82.22;100475.00;5992976;28;20387;-66
2022/07/01 01:23:10;;;;;;;8.23;4.45;;;;;;;19.44;82.17;100485.16;6000601;28;20533;-66
2022/07/01 01:26:16;;;;;;;7.50;5.05;;;;;;;19.30;82.27;100496.94;5998788;28;20027;-66
2022/07/01 01:29:12;;;;;;;6.75;4.10;;;;;;;19.20;81.73;100499.22;5999300;28;20559;-66
2022/07/01 01:32:07;;;;;;;5.07;3.30;;;;;;;19.08;81.58;100487.44;5999748;28;20043;-66
2022/07/01 01:35:03;;;;;;;5.13;2.78;;;;;;;18.96;81.68;100476.47;6005891;28;20042;-66
2022/07/01 01:37:58;;;;;;;6.07;2.72;;;;;;;18.94;81.44;100487.41;6006032;28;20081;-66
2022/07/01 01:40:55;;;;;;;7.27;2.90;;;;;;;18.92;81.38;100494.88;6002498;28;20039;-67
2022/07/01 01:43:50;;;;;;;5.53;2.72;;;;;;;18.88;81.35;100503.56;5999494;28;20777;-66
2022/07/01 01:46:46;;;;;;;5.18;2.70;;;;;;;18.89;81.77;100521.31;6004685;28;20039;-66
2022/07/01 01:49:41;;;;;;;8.50;3.10;;;;;;;18.80;81.82;100519.88;5999637;28;20395;-66
2022/07/01 01:52:38;;;;;;;5.38;3.30;;;;;;;18.75;81.86;100515.09;6001054;28;20086;-66
2022/07/01 01:55:33;;;;;;;6.90;4.28;;;;;;;18.67;82.76;100520.66;5993552;28;20046;-66
2022/07/01 01:58:29;;;;;;;7.13;4.37;;;;;;;18.59;83.20;100511.97;6004807;28;20039;-67
2022/07/01 02:01:24;;;;;;;5.75;3.15;;;;;;;18.59;83.36;100509.28;6000306;28;20066;-67
2022/07/01 02:04:20;;;;;;;6.78;3.67;;;;;;;18.62;83.49;100530.34;5999109;28;20038;-67
2022/07/01 02:07:15;;;;;;;12.43;5.75;;;;;;;18.50;86.26;100548.94;6005563;28;20035;-66
2022/07/01 02:10:11;;;;;;;21.27;8.47;;;;;;;17.69;91.76;100530.94;6005671;28;20038;-69
2022/07/01 02:13:06;;;;;;;36.10;8.80;;;;;;;17.20;95.39;100529.06;5995492;28;21080;-70
2022/07/01 02:16:02;;;;;;;20.43;7.93;;;;;;;17.16;97.93;100553.78;6005168;28;20031;-69
2022/07/01 02:18:57;;;;;;;15.60;9.27;;;;;;;17.06;99.17;100569.38;6005839;28;20118;-68
2022/07/01 02:21:52;;;;;;;19.75;11.95;;;;;;;16.69;99.75;100550.84;5996662;28;20114;-66
2022/07/01 02:24:48;;;;;;;17.53;10.70;;;;;;;16.62;100.00;100532.88;6003963;28;20064;-67
2022/07/01 02:27:43;;;;;;;21.83;12.25;;;;;;;16.63;100.00;100533.69;5998150;28;20034;-66
2022/07/01 02:30:38;;;;;;;26.23;16.00;;;;;;;16.47;100.00;100542.72;6005207;28;20057;-66
2022/07/01 02:33:34;;;;;;;29.63;18.17;;;;;;;16.44;100.00;100569.06;5998356;28;20085;-65
2022/07/01 02:36:29;;;;;;;27.00;15.67;;;;;;;16.43;100.00;100584.28;6001746;28;20018;-65
2022/07/01 02:39:24;;;;;;;29.03;16.40;;;;;;;16.23;100.00;100572.50;6005594;28;20042;-65
2022/07/01 02:42:23;;;;;;;21.27;11.27;;;;;;;16.17;100.00;100567.06;6003785;28;20281;-66
2022/07/01 02:45:18;;;;;;;15.63;8.85;;;;;;;16.16;100.00;100582.28;6005563;28;20363;-65
2022/07/01 02:48:13;;;;;;;13.60;7.47;;;;;;;16.16;100.00;100608.22;5992772;28;20031;-66
2022/07/01 02:51:08;;;;;;;10.30;6.35;;;;;;;16.16;100.00;100640.31;6004453;28;20325;-65
2022/07/01 02:54:04;;;;;;;9.20;7.03;;;;;;;16.10;100.00;100668.63;6005382;28;20045;-65
2022/07/01 02:57:01;;;;;;;11.02;7.20;;;;;;;15.99;100.00;100688.63;6000659;28;20031;-65
2022/07/01 02:59:57;;;;;;;9.82;5.60;;;;;;;15.95;100.00;100695.34;6005021;28;20062;-65
2022/07/01 03:02:53;;;;;;;11.77;6.80;;;;;;;15.97;100.00;100705.88;6002445;28;20037;-65
2022/07/01 03:05:49;;;;;;;12.93;7.05;;;;;;;16.01;100.00;100716.03;6000775;28;20058;-66
2022/07/01 03:08:44;;;;;;;11.20;5.82;;;;;;;16.01;100.00;100723.22;6003055;28;20401;-65
2022/07/01 03:11:39;;;;;;;8.50;6.10;;;;;;;15.94;100.00;100719.63;6003483;28;20039;-65
2022/07/01 03:14:35;;;;;;;10.47;5.53;;;;;;;15.95;100.00;100729.31;6001912;28;20417;-65
2022/07/01 03:17:32;;;;;;;7.93;4.70;;;;;;;15.96;100.00;100736.31;5993005;28;20043;-65
2022/07/01 03:20:28;;;;;;;8.88;5.03;;;;;;;15.86;100.00;100738.41;5991589;28;20031;-65
2022/07/01 03:23:23;;;;;;;6.88;4.40;;;;;;;15.83;100.00;100739.59;6004001;28;20035;-65
2022/07/01 03:26:18;;;;;;;8.27;4.10;;;;;;;15.84;100.00;100745.78;6004455;28;20368;-65
2022/07/01 03:29:14;;;;;;;6.27;3.53;;;;;;;15.83;100.00;100741.44;5999868;28;20019;-65
2022/07/01 03:32:09;;;;;;;7.30;3.23;;;;;;;15.89;100.00;100749.59;6002835;28;20045;-65
2022/07/01 03:35:35;;;;;;;6.80;3.50;;;;;;;15.78;100.00;100746.50;6003626;28;20050;-65
2022/07/01 03:38:20;;;;;;;5.78;3.03;;;;;;;15.94;100.00;100767.75;5993564;28;20066;-65
2022/07/01 03:41:15;;;;;;;3.93;2.60;;;;;;;15.78;100.00;100754.53;6003806;28;20031;-65
2022/07/01 03:44:11;;;;;;;4.07;2.07;;;;;;;15.70;99.70;100746.56;5992270;28;20046;-65
2022/07/01 03:47:06;;;;;;;3.43;1.80;;;;;;;15.77;100.00;100747.50;5998959;28;20463;-66
2022/07/01 03:50:02;;;;;;;5.03;2.10;;;;;;;15.71;100.00;100745.56;6003600;28;20105;-66
2022/07/01 03:56:11;;;;;;;3.97;2.00;;;;;;;15.62;99.33;100757.31;6002960;28;20454;-65
2022/07/01 03:59:06;;;;;;;4.13;2.40;;;;;;;15.64;98.98;100776.66;6001290;28;20030;-65
2022/07/01 04:02:03;;;;;;;5.07;2.37;;;;;;;15.55;98.34;100775.03;6003123;28;20041;-65
2022/07/01 04:04:58;;;;;;;4.78;2.70;;;;;;;15.63;98.71;100775.84;5993330;28;20046;-66
2022/07/01 04:07:53;;;;;;;6.60;3.07;;;;;;;15.41;98.71;100731.16;6002594;28;20030;-65
2022/07/01 04:10:50;;;;;;;5.88;3.38;;;;;;;15.57;99.27;100714.25;5989238;28;20275;-65
2022/07/01 04:13:50;;;;;;;10.32;4.18;;;;;;;15.27;99.06;100718.59;6001868;28;20045;-69
2022/07/01 04:16:46;;;;;;;9.02;4.57;;;;;;;15.30;100.00;100737.75;5989634;28;20037;-67
2022/07/01 04:19:41;;;;;;;9.55;4.78;;;;;;;15.03;100.00;100716.84;6002494;28;20046;-67
2022/07/01 04:22:37;;;;;;;11.70;4.57;;;;;;;14.88;100.00;100676.72;5997244;28;20487;-66
2022/07/01 04:25:32;;;;;;;10.70;4.05;;;;;;;14.81;100.00;100672.25;6002765;28;20062;-65
2022/07/01 04:28:27;;;;;;;7.32;4.25;;;;;;;14.74;100.00;100669.44;6001913;28;20034;-66
2022/07/01 04:31:23;;;;;;;8.70;4.23;;;;;;;14.69;100.00;100670.97;6002165;28;20066;-66
2022/07/01 04:34:18;;;;;;;7.97;3.77;;;;;;;14.78;100.00;100697.44;6001322;28;20057;-65
2022/07/01 04:37:13;;;;;;;8.10;4.37;;;;;;;14.73;100.00;100715.00;6002887;28;20039;-65
2022/07/01 04:40:08;;;;;;;9.17;3.73;;;;;;;14.86;100.00;100715.28;5992490;28;20069;-66
2022/07/01 04:43:04;;;;;;;6.57;4.20;;;;;;;14.64;100.00;100716.03;6001282;28;20035;-65
2022/07/01 04:45:59;;;;;;;8.60;4.30;;;;;;;14.66;100.00;100732.69;5993206;28;20034;-65
2022/07/01 04:48:54;;;;;;;9.33;4.50;;;;;;;14.73;100.00;100744.38;5999230;28;20046;-65
2022/07/01 04:51:50;;;;;;;9.15;3.70;;;;;;;14.55;100.00;100746.41;5999451;28;20038;-65
2022/07/01 04:54:45;;;;;;;18.52;3.40;;;;;;;14.57;100.00;100779.09;5995740;28;20363;-65
2022/07/01 04:57:41;;;;;;;7.80;3.53;;;;;;;14.60;100.00;100773.41;5996630;28;20039;-64
2022/07/01 05:00:36;;;;;;;6.17;3.20;;;;;;;14.71;100.00;100775.72;6001286;28;20486;-64
2022/07/01 05:03:32;;;;;;;4.80;2.80;;;;;;;14.76;100.00;100790.22;5993032;28;20035;-65
2022/07/01 05:06:27;;;;;;;5.93;2.80;;;;;;;14.90;100.00;100783.34;6002222;28;20050;-64
2022/07/01 05:09:22;;;;;;;4.32;2.85;;;;;;;15.21;100.00;100770.88;5997465;28;20051;-64
2022/07/01 05:12:18;;;;;;;5.97;3.30;;;;;;;15.12;100.00;100779.09;5990204;28;20039;-65
2022/07/01 05:15:13;;;;;;;5.93;3.33;;;;;;;15.27;100.00;100783.50;6000028;28;20046;-64
2022/07/01 05:24:36;;;;;;;6.63;3.08;;;;;;;15.14;100.00;100803.78;5989922;28;20043;-64
2022/07/01 05:27:32;;;;;;;5.67;3.30;;;;;;;15.21;100.00;100815.47;6000400;28;20546;-65
2022/07/01 05:30:27;;;;;;;5.80;3.08;;;;;;;15.17;98.93;100822.97;5991180;28;20082;-65
2022/07/01 05:33:26;;;;;;;5.10;2.83;;;;;;;15.09;98.70;100817.66;6000664;28;20039;-65
2022/07/01 05:36:21;;;;;;;6.00;3.60;;;;;;;15.04;98.86;100825.38;6001117;28;20038;-65
2022/07/01 05:39:17;;;;;;;5.05;3.13;;;;;;;15.10;98.69;100826.53;6001994;28;20026;-65
2022/07/01 05:42:12;;;;;;;7.10;3.72;;;;;;;15.02;99.10;100819.38;6001663;28;20031;-65
2022/07/01 05:45:07;;;;;;;6.87;3.77;;;;;;;15.05;98.75;100813.69;5999884;28;20038;-65
2022/07/01 05:48:03;;;;;;;6.80;3.75;;;;;;;15.16;99.06;100816.00;6001650;28;20031;-65
2022/07/01 05:50:58;;;;;;;7.95;3.80;;;;;;;15.12;98.99;100803.97;6001574;28;20034;-66
2022/07/01 05:53:54;;;;;;;7.73;4.20;;;;;;;15.13;98.19;100813.66;6001882;28;20046;-65
2022/07/01 05:56:49;;;;;;;6.07;3.92;;;;;;;15.20;98.42;100827.97;6001207;28;20039;-64
2022/07/01 05:59:44;;;;;;;9.90;4.50;;;;;;;15.14;98.25;100831.34;6001142;28;20382;-65
2022/07/01 06:02:40;;;;;;;7.37;3.67;;;;;;;15.34;98.44;100851.31;6001524;28;20042;-65
2022/07/01 06:05:35;;;;;;;10.63;3.87;;;;;;;15.33;97.45;100854.97;6002039;28;20100;-65
2022/07/01 06:08:30;;;;;;;6.33;3.07;;;;;;;15.39;96.64;100862.31;6001779;28;20495;-65
2022/07/01 06:11:26;;;;;;;5.95;2.83;;;;;;;15.20;96.14;100833.31;6002411;28;20289;-65
2022/07/01 06:14:21;;;;;;;5.05;2.95;;;;;;;15.18;96.17;100848.69;6006328;28;20035;-65
2022/07/01 06:17:17;;;;;;;5.73;2.67;;;;;;;15.29;96.46;100842.16;6006064;28;20031;-64
2022/07/01 06:20:12;;;;;;;6.97;2.88;;;;;;;15.19;95.57;100849.53;6005359;28;20439;-64
2022/07/01 06:23:07;;;;;;;6.23;3.13;;;;;;;15.10;95.19;100846.06;5999294;28;20038;-65
2022/07/01 06:26:03;;;;;;;4.97;2.87;;;;;;;15.05;95.57;100853.75;6004128;28;20173;-65
2022/07/01 06:28:58;;;;;;;5.33;3.20;;;;;;;14.98;95.94;100834.06;6006020;28;20306;-65
2022/07/01 06:31:53;;;;;;;6.87;3.83;;;;;;;14.98;95.23;100844.75;6005230;28;20046;-65
2022/07/01 06:34:49;;;;;;;8.60;4.30;;;;;;;14.97;95.07;100853.78;6005763;28;20281;-65
2022/07/01 06:37:44;;;;;;;8.83;4.03;;;;;;;14.95;95.57;100863.78;6002732;28;20034;-65
2022/07/01 06:40:39;;;;;;;8.70;4.60;;;;;;;14.98;95.38;100858.09;6002595;28;20031;-65
2022/07/01 06:43:35;;;;;;;8.40;4.33;;;;;;;15.00;95.22;100864.09;6005396;28;20398;-65
2022/07/01 06:46:31;;;;;;;7.70;4.32;;;;;;;14.96;95.27;100869.97;6005307;28;20375;-65
2022/07/01 06:49:26;;;;;;;9.90;5.05;;;;;;;14.95;95.71;100871.78;6005626;28;20066;-64
2022/07/01 06:52:22;;;;;;;8.83;5.20;;;;;;;15.01;95.47;100862.25;6004004;28;20114;-65
2022/07/01 06:55:17;;;;;;;10.60;5.80;;;;;;;14.91;95.91;100881.16;6003655;28;20034;-65
2022/07/01 06:58:12;;;;;;;10.45;5.20;;;;;;;15.04;95.90;100876.13;6000168;28;20538;-65
2022/07/01 07:01:08;;;;;;;9.73;5.30;;;;;;;15.12;95.97;100875.25;6001741;28;20635;-65
2022/07/01 07:04:03;;;;;;;8.67;5.10;;;;;;;15.08;96.05;100871.28;5994498;28;20084;-64
2022/07/01 07:06:58;;;;;;;8.98;4.78;;;;;;;15.11;95.59;100862.91;6004784;28;20038;-65
2022/07/01 07:09:55;;;;;;;10.23;5.63;;;;;;;15.18;93.91;100879.91;6004925;28;20027;-64
2022/07/01 07:12:51;;;;;;;9.45;5.10;;;;;;;15.24;94.29;100874.72;6003868;28;20609;-65
2022/07/01 07:15:46;;;;;;;7.87;4.53;;;;;;;15.23;93.94;100882.91;5999785;28;20043;-65
2022/07/01 07:18:41;;;;;;;8.80;5.07;;;;;;;15.24;93.99;100885.41;6004444;28;20029;-65
2022/07/01 07:21:37;;;;;;;9.93;5.17;;;;;;;15.21;93.48;100896.44;6003852;28;20079;-65
2022/07/01 07:24:32;;;;;;;8.77;4.80;;;;;;;15.27;93.87;100900.28;6003036;28;20384;-65
2022/07/01 07:27:27;;;;;;;8.80;5.83;;;;;;;15.37;93.32;100906.25;6004359;28;20110;-65
2022/07/01 07:30:23;;;;;;;8.97;5.17;;;;;;;15.36;93.25;100910.75;5997495;28;20086;-65
2022/07/01 07:33:18;;;;;;;9.50;5.47;;;;;;;15.34;92.68;100938.66;6004278;28;20320;-65
2022/07/01 07:36:13;;;;;;;10.27;5.27;;;;;;;15.33;93.47;100950.34;6004092;28;20113;-65
2022/07/01 07:39:09;;;;;;;8.53;5.40;;;;;;;15.26;92.70;100936.84;6002346;28;20027;-65
2022/07/01 07:42:05;;;;;;;11.50;5.87;;;;;;;15.26;93.51;100952.88;6002515;28;20769;-65
2022/07/01 07:45:01;;;;;;;11.40;5.75;;;;;;;15.27;93.80;100975.91;6003572;28;20316;-65
2022/07/01 07:47:56;;;;;;;8.90;5.38;;;;;;;15.16;94.10;100981.63;6003621;28;20479;-65
2022/07/01 07:50:51;;;;;;;12.43;6.10;;;;;;;15.11;95.40;100983.94;6002863;28;20113;-64
2022/07/01 07:53:47;;;;;;;11.80;6.10;;;;;;;15.08;95.72;100981.63;5995603;28;20034;-64
2022/07/01 07:56:42;;;;;;;11.03;5.53;;;;;;;14.98;97.11;100964.94;6003722;28;20537;-64
2022/07/01 07:59:37;;;;;;;9.80;4.83;;;;;;;14.91;97.73;100974.63;6003826;28;20043;-66
2022/07/01 08:02:33;;;;;;;7.97;4.68;;;;;;;14.78;98.56;100966.28;6003039;28;20046;-65
2022/07/01 08:05:28;;;;;;;8.93;4.78;;;;;;;14.82;98.84;100967.59;6003393;28;20087;-65
2022/07/01 08:08:24;;;;;;;9.50;5.30;;;;;;;14.80;99.75;100973.13;5997514;28;20395;-66
2022/07/01 08:11:19;;;;;;;9.90;5.33;;;;;;;14.70;100.00;100960.94;5988014;28;20034;-65
2022/07/01 08:14:15;;;;;;;7.40;4.93;;;;;;;14.70;100.00;100966.28;6003550;28;20277;-66
2022/07/01 08:17:10;;;;;;;11.75;6.13;;;;;;;14.71;100.00;100975.94;6003511;28;20065;-65
2022/07/01 08:20:06;;;;;;;9.63;5.70;;;;;;;14.68;100.00;100954.91;6002552;28;20045;-66
2022/07/01 08:23:02;;;;;;;10.70;6.20;;;;;;;14.57;100.00;100965.91;6001427;28;20039;-66
2022/07/01 08:25:57;;;;;;;9.98;6.32;;;;;;;14.50;100.00;100970.25;6002566;28;20085;-66
2022/07/01 08:28:53;;;;;;;10.23;7.23;;;;;;;14.45;100.00;100983.25;6003402;28;20069;-66
2022/07/01 08:31:48;;;;;;;11.77;7.20;;;;;;;14.65;100.00;100996.13;6002538;28;20478;-66
2022/07/01 08:34:43;;;;;;;13.50;7.40;;;;;;;14.57;100.00;100995.28;6002962;28;20282;-66
2022/07/01 08:37:38;;;;;;;11.03;6.70;;;;;;;14.58;100.00;101004.97;6003236;28;20590;-67
2022/07/01 08:40:34;;;;;;;12.97;6.83;;;;;;;14.59;100.00;100994.13;6001391;28;20038;-67
2022/07/01 08:43:30;;;;;;;12.85;7.50;;;;;;;14.67;100.00;100998.66;6003030;28;20034;-67
2022/07/01 08:46:28;;;;;;;9.98;6.53;;;;;;;14.67;100.00;101004.00;6002729;28;20126;-67
2022/07/01 08:49:25;;;;;;;11.48;6.88;;;;;;;14.58;100.00;100994.28;6000965;28;20042;-66
2022/07/01 08:52:21;;;;;;;10.18;7.38;;;;;;;14.76;100.00;101011.81;6002161;28;20039;-66
2022/07/01 08:55:17;;;;;;;10.43;6.40;;;;;;;14.77;100.00;101005.50;6002559;28;20437;-66
2022/07/01 08:58:13;;;;;;;12.15;7.38;;;;;;;14.85;100.00;101002.00;6000722;28;20030;-67
2022/07/01 09:01:22;;;;;;;9.87;6.80;;;;;;;14.85;100.00;100993.97;6001751;28;20082;-66
2022/07/01 09:04:19;;;;;;;11.48;7.28;;;;;;;15.13;100.00;101008.66;6002802;28;20509;-67
2022/07/01 09:07:14;;;;;;;13.20;7.40;;;;;;;15.24;100.00;100996.81;6001417;28;20169;-66
2022/07/01 09:10:20;;;;;;;12.13;7.70;;;;;;;15.25;100.00;101004.63;6001634;28;20038;-66
2022/07/01 09:13:15;;;;;;;11.13;7.28;;;;;;;15.22;100.00;101015.66;5999858;28;20097;-65
2022/07/01 09:16:15;;;;;;;10.90;6.80;;;;;;;15.19;100.00;101021.34;6002283;28;20502;-66
2022/07/01 09:19:12;;;;;;;11.77;7.00;;;;;;;15.02;100.00;101027.72;6002531;28;20027;-66
2022/07/01 09:22:08;;;;;;;10.30;6.53;;;;;;;14.88;100.00;101023.03;6000038;28;20027;-66
2022/07/01 09:25:12;;;;;;;12.03;6.30;;;;;;;14.79;100.00;101034.69;6002616;28;20050;-66
2022/07/01 09:28:10;;;;;;;10.40;6.63;;;;;;;14.83;100.00;101041.38;6001843;28;20118;-65
2022/07/01 09:31:06;;;;;;;10.80;6.03;;;;;;;14.99;100.00;101048.56;6001385;28;20406;-65
2022/07/01 09:34:03;;;;;;;12.30;7.20;;;;;;;15.02;100.00;101035.72;6002342;28;20034;-65
2022/07/01 09:36:59;;;;;;;9.40;6.13;;;;;;;15.35;99.42;101033.88;6002106;28;20546;-66
2022/07/01 09:39:56;;;;;;;9.80;5.28;;;;;;;15.51;98.14;101047.25;6002258;28;20038;-65
2022/07/01 09:42:52;;;;;;;9.40;5.60;;;;;;;15.55;96.97;101058.41;6001608;28;20471;-66
2022/07/01 09:45:57;;;;;;;9.67;5.20;;;;;;;15.56;97.41;101060.09;5994844;28;20074;-65
2022/07/01 09:48:52;;;;;;;8.13;4.82;;;;;;;15.74;96.86;101069.56;6006748;28;20442;-65
2022/07/01 09:51:49;;;;;;;7.67;5.17;;;;;;;15.78;96.41;101076.25;6005494;28;20043;-66
2022/07/01 09:54:47;;;;;;;7.10;5.03;;;;;;;15.80;94.65;101060.03;6006746;28;20034;-66
2022/07/01 09:57:42;;;;;;;7.15;4.72;;;;;;;15.78;93.81;101075.41;6006227;28;20054;-65
2022/07/01 10:00:38;;;;;;;7.40;4.03;;;;;;;15.74;93.98;101074.06;6001418;28;20483;-66
2022/07/01 10:03:33;;;;;;;8.88;5.05;;;;;;;15.53;94.12;101066.59;6005007;28;20450;-66
2022/07/01 10:06:58;;;;;;;8.55;4.80;;;;;;;15.66;93.49;101074.09;6004876;28;20046;-65
2022/07/01 10:10:24;;;;;;;6.60;4.75;;;;;;;15.46;93.15;101082.47;6021210;28;20030;-65
2022/07/01 10:13:24;;;;;;;7.43;4.68;;;;;;;15.42;93.95;101077.59;6021280;28;20438;-66
2022/07/01 10:16:19;;;;;;;8.05;4.75;;;;;;;15.48;94.52;101075.16;6005115;28;20445;-65
2022/07/01 10:19:20;;;;;;;10.38;5.18;;;;;;;15.51;92.92;101094.50;6006175;28;20027;-65
2022/07/01 10:22:29;;;;;;;7.10;4.82;;;;;;;15.52;92.22;101090.84;6003962;28;20098;-66
2022/07/01 10:25:33;;;;;;;7.57;4.82;;;;;;;15.30;91.55;101092.34;6005767;28;20397;-65
2022/07/01 10:28:41;;;;;;;7.22;4.63;;;;;;;15.25;91.51;101074.09;6005917;28;20035;-65
2022/07/01 10:31:37;;;;;;;6.53;4.70;;;;;;;15.28;92.16;101091.63;6003896;28;20039;-65
2022/07/01 10:34:37;;;;;;;6.63;4.43;;;;;;;15.41;91.09;101078.59;5997411;28;20038;-65
2022/07/01 10:37:32;;;;;;;9.73;4.40;;;;;;;15.51;89.87;101081.16;6005556;28;20494;-65
2022/07/01 10:40:41;;;;;;;10.57;4.27;;;;;;;15.51;89.37;101092.69;6004898;28;20035;-65
2022/07/01 10:43:37;;;;;;;6.15;4.57;;;;;;;15.83;89.43;101091.78;6005383;28;20266;-65
2022/07/01 10:46:40;;;;;;;6.68;4.05;;;;;;;16.04;88.71;101097.41;6005490;28;20037;-65
2022/07/01 10:49:36;;;;;;;7.88;4.40;;;;;;;16.15;87.96;101099.72;5999982;28;20035;-65
2022/07/01 10:52:33;;;;;;;7.97;4.70;;;;;;;16.34;87.93;101104.66;6004530;28;20034;-66
2022/07/01 10:55:38;;;;;;;6.70;3.92;;;;;;;16.61;86.30;101104.22;6005231;28;20034;-65
2022/07/01 10:58:37;;;;;;;9.73;4.53;;;;;;;17.08;84.01;101100.59;6002474;28;20398;-65
2022/07/01 11:01:33;;;;;;;8.20;4.75;;;;;;;17.33;83.44;101085.16;6004500;28;20077;-65
2022/07/01 11:04:37;;;;;;;7.80;4.63;;;;;;;17.39;82.15;101087.13;6004879;28;20042;-66
2022/07/01 11:07:34;;;;;;;7.80;4.55;;;;;;;17.47;80.86;101093.25;6000725;28;20506;-65
2022/07/01 11:10:29;;;;;;;10.55;5.32;;;;;;;17.36;79.72;101090.16;6004400;28;20439;-65
2022/07/01 11:13:27;;;;;;;8.53;5.20;;;;;;;17.43;80.12;101099.97;6004865;28;20085;-65
2022/07/01 11:16:22;;;;;;;7.78;4.47;;;;;;;17.37;80.03;101092.66;6004939;28;20301;-65
2022/07/01 11:19:18;;;;;;;8.67;5.00;;;;;;;17.16;80.44;101105.88;6004721;28;20039;-65
2022/07/01 11:22:20;;;;;;;6.55;4.75;;;;;;;17.25;80.87;101084.22;6002917;28;20138;-66
2022/07/01 11:25:18;;;;;;;13.73;5.47;;;;;;;17.26;80.50;101088.56;6004732;28;20038;-66
2022/07/01 11:28:13;;;;;;;6.68;4.70;;;;;;;17.58;80.37;101083.97;6004808;28;20085;-66
2022/07/01 11:31:11;;;;;;;8.07;4.80;;;;;;;17.83;78.41;101096.09;6004053;28;20035;-66
2022/07/01 11:34:07;;;;;;;12.15;5.00;;;;;;;18.03;77.86;101088.34;6004331;28;20041;-66
2022/07/01 11:40:24;;;;;;;8.32;5.05;;;;;;;17.75;77.09;101093.50;6000447;28;20043;-66
2022/07/01 11:43:27;;;;;;;9.10;5.07;;;;;;;17.56;77.05;101089.50;6004361;28;20443;-66
2022/07/01 11:46:23;;;;;;;7.40;5.22;;;;;;;17.64;77.48;101100.13;6004137;28;20042;-66
2022/07/01 11:49:23;;;;;;;7.88;4.93;;;;;;;17.63;78.02;101097.66;6004483;28;20046;-66
2022/07/01 11:52:20;;;;;;;9.45;5.28;;;;;;;17.55;76.56;101097.72;6003264;28;20051;-66
2022/07/01 11:55:18;;;;;;;9.52;4.60;;;;;;;17.70;76.22;101112.84;5996031;28;20443;-66
2022/07/01 11:58:14;;;;;;;8.00;4.97;;;;;;;17.83;75.81;101115.72;5998319;28;20046;-66
2022/07/01 12:01:10;;;;;;;10.03;5.03;;;;;;;17.74;77.07;101114.16;6003265;28;20030;-66
2022/07/01 12:04:07;;;;;;;14.45;5.72;;;;;;;17.71;76.06;101117.19;6003850;28;20031;-66
2022/07/01 12:07:03;;;;;;;8.90;4.85;;;;;;;17.67;76.14;101104.31;6003693;28;20475;-66
2022/07/01 12:10:01;;;;;;;7.63;4.90;;;;;;;17.82;75.53;101119.44;6003290;28;20374;-66
2022/07/01 12:12:56;;;;;;;9.93;4.95;;;;;;;17.92;76.36;101113.78;6001512;28;20111;-66
2022/07/01 12:15:52;;;;;;;9.43;4.75;;;;;;;18.08;77.57;101110.09;6003573;28;20034;-66
2022/07/01 12:18:56;;;;;;;9.68;5.20;;;;;;;17.84;76.04;101130.81;6003498;28;20030;-66
2022/07/01 12:21:54;;;;;;;10.15;4.97;;;;;;;17.47;76.56;101117.38;6001431;28;20037;-66
2022/07/01 12:25:04;;;;;;;10.93;5.57;;;;;;;17.53;76.61;101135.44;6003302;28;20030;-66
2022/07/01 12:27:59;;;;;;;9.27;5.50;;;;;;;17.27;79.08;101132.28;5990554;28;20070;-66
2022/07/01 12:31:00;;;;;;;12.53;6.27;;;;;;;17.13;81.14;101131.22;5999086;28;20042;-66
2022/07/01 12:33:56;;;;;;;7.50;4.70;;;;;;;16.99;81.44;101133.81;6003086;28;20030;-66
2022/07/01 12:36:51;;;;;;;14.63;5.80;;;;;;;16.85;82.13;101129.22;6003300;28;20049;-66
2022/07/01 12:39:54;;;;;;;11.60;6.87;;;;;;;16.71;84.04;101138.00;6002986;28;20274;-66
2022/07/01 12:42:49;;;;;;;12.60;7.15;;;;;;;16.56;84.22;101117.31;5998369;28;20027;-66
2022/07/01 12:45:45;;;;;;;11.13;6.80;;;;;;;16.42;86.45;101128.72;6001071;28;20042;-65
2022/07/01 12:48:49;;;;;;;12.47;6.40;;;;;;;16.43;87.23;101132.22;6002707;28;20038;-66
2022/07/01 12:51:44;;;;;;;10.43;6.00;;;;;;;16.32;86.64;101130.78;6002280;28;20038;-65
2022/07/01 12:54:40;;;;;;;13.00;6.97;;;;;;;16.30;88.65;101131.97;6002616;28;20049;-65
2022/07/01 12:57:35;;;;;;;11.47;7.13;;;;;;;16.24;88.79;101127.28;6002731;28;20479;-65
2022/07/01 13:00:31;;;;;;;12.30;7.13;;;;;;;16.24;89.56;101128.13;5995167;28;20058;-66
2022/07/01 13:03:27;;;;;;;10.45;6.03;;;;;;;16.09;89.76;101119.13;6002611;28;20035;-65
2022/07/01 13:06:23;;;;;;;12.00;6.45;;;;;;;16.34;90.13;101133.25;6002879;28;20043;-65
2022/07/01 13:09:18;;;;;;;9.67;5.93;;;;;;;16.46;89.11;101119.34;6002676;28;20035;-65
2022/07/01 13:12:14;;;;;;;14.73;6.83;;;;;;;16.76;89.49;101112.38;6002212;28;20034;-65
2022/07/01 13:15:10;;;;;;;11.48;6.53;;;;;;;16.95;88.35;101130.66;6001169;28;20275;-65
2022/07/01 13:18:06;;;;;;;9.07;5.90;;;;;;;17.19;86.99;101130.50;6002371;28;20041;-65
2022/07/01 13:21:02;;;;;;;11.95;5.55;;;;;;;17.19;84.82;101133.19;6003137;28;20030;-65
2022/07/01 13:23:57;;;;;;;9.73;5.68;;;;;;;17.27;85.05;101132.28;6005464;28;20042;-65
2022/07/01 13:26:52;;;;;;;7.53;4.83;;;;;;;17.39;83.08;101132.69;6007520;28;20056;-65
2022/07/01 13:29:48;;;;;;;9.33;4.30;;;;;;;17.57;82.14;101123.34;6005981;28;20270;-65
2022/07/01 13:32:44;;;;;;;6.47;4.18;;;;;;;17.56;81.26;101126.19;5999399;28;20053;-65
2022/07/01 13:35:39;;;;;;;9.27;3.35;;;;;;;17.50;77.82;101130.41;6007195;28;20157;-65
2022/07/01 13:38:35;;;;;;;8.80;3.60;;;;;;;17.58;76.82;101127.69;6005685;28;20058;-65
2022/07/01 13:41:30;;;;;;;6.70;3.38;;;;;;;17.69;77.41;101135.28;6006369;28;20431;-65
2022/07/01 13:44:25;;;;;;;4.90;3.10;;;;;;;17.90;73.99;101133.78;6007068;28;20129;-65
2022/07/01 13:47:21;;;;;;;5.50;3.30;;;;;;;17.98;72.75;101129.16;6005207;28;20039;-65